sensor_id;sensor_type;location;lat;lon;timestamp;temperature;humidity
9095;DHT22;4583;49.796;9.902;2022-07-17T00:07:15;17.60;57.80
9095;DHT22;4583;49.796;9.902;2022-07-17T00:17:17;17.50;58.20
9095;DHT22;4583;49.796;9.902;2022-07-17T00:27:19;17.30;58.30
9095;DHT22;4583;49.796;9.902;2022-07-17T00:37:21;17.20;58.70
9095;DHT22;4583;49.796;9.902;2022-07-17T00:47:23;17.00;59.20
9095;DHT22;4583;49.796;9.902;2022-07-17T00:57:25;16.70;59.60
9095;DHT22;4583;49.796;9.902;2022-07-17T01:07:28;16.70;60.20
9095;DHT22;4583;49.796;9.902;2022-07-17T01:17:31;16.70;60.10
9095;DHT22;4583;49.796;9.902;2022-07-17T01:27:32;16.60;60.40
9095;DHT22;4583;49.796;9.902;2022-07-17T01:37:34;16.50;60.60
9095;DHT22;4583;49.796;9.902;2022-07-17T01:47:36;16.40;60.70
9095;DHT22;4583;49.796;9.902;2022-07-17T01:57:39;16.20;60.80
9095;DHT22;4583;49.796;9.902;2022-07-17T02:07:41;16.20;61.00
9095;DHT22;4583;49.796;9.902;2022-07-17T02:17:43;16.10;61.30
9095;DHT22;4583;49.796;9.902;2022-07-17T02:27:44;16.00;61.80
9095;DHT22;4583;49.796;9.902;2022-07-17T02:37:46;15.80;62.10
9095;DHT22;4583;49.796;9.902;2022-07-17T02:47:48;15.70;62.30
9095;DHT22;4583;49.796;9.902;2022-07-17T02:57:50;15.60;62.70
9095;DHT22;4583;49.796;9.902;2022-07-17T03:07:51;15.40;63.00
9095;DHT22;4583;49.796;9.902;2022-07-17T03:17:53;15.40;63.50
9095;DHT22;4583;49.796;9.902;2022-07-17T03:27:55;15.20;63.90
9095;DHT22;4583;49.796;9.902;2022-07-17T03:37:56;15.00;64.30
9095;DHT22;4583;49.796;9.902;2022-07-17T03:47:58;15.00;64.80
9095;DHT22;4583;49.796;9.902;2022-07-17T03:58:00;14.90;65.00
9095;DHT22;4583;49.796;9.902;2022-07-17T04:08:01;14.80;65.40
9095;DHT22;4583;49.796;9.902;2022-07-17T04:18:03;14.80;65.70
9095;DHT22;4583;49.796;9.902;2022-07-17T04:28:05;14.80;65.70
9095;DHT22;4583;49.796;9.902;2022-07-17T04:38:08;14.70;66.30
9095;DHT22;4583;49.796;9.902;2022-07-17T04:48:10;14.70;66.80
9095;DHT22;4583;49.796;9.902;2022-07-17T04:58:11;14.80;67.00
9095;DHT22;4583;49.796;9.902;2022-07-17T05:08:15;15.00;66.90
9095;DHT22;4583;49.796;9.902;2022-07-17T05:18:17;15.40;66.70
9095;DHT22;4583;49.796;9.902;2022-07-17T05:28:19;15.40;66.30
9095;DHT22;4583;49.796;9.902;2022-07-17T05:38:21;15.50;66.40
9095;DHT22;4583;49.796;9.902;2022-07-17T05:48:23;15.70;66.00
9095;DHT22;4583;49.796;9.902;2022-07-17T05:58:25;15.90;65.40
9095;DHT22;4583;49.796;9.902;2022-07-17T06:08:26;16.00;64.90
9095;DHT22;4583;49.796;9.902;2022-07-17T06:18:28;16.30;64.00
9095;DHT22;4583;49.796;9.902;2022-07-17T06:28:30;16.70;63.40
9095;DHT22;4583;49.796;9.902;2022-07-17T06:38:33;16.90;62.60
9095;DHT22;4583;49.796;9.902;2022-07-17T06:48:35;17.30;62.20
9095;DHT22;4583;49.796;9.902;2022-07-17T06:58:37;17.60;61.60
9095;DHT22;4583;49.796;9.902;2022-07-17T07:08:38;17.80;61.00
9095;DHT22;4583;49.796;9.902;2022-07-17T07:18:40;18.20;60.60
9095;DHT22;4583;49.796;9.902;2022-07-17T07:28:42;18.50;60.10
9095;DHT22;4583;49.796;9.902;2022-07-17T07:38:43;18.90;59.40
9095;DHT22;4583;49.796;9.902;2022-07-17T07:48:47;19.20;58.40
9095;DHT22;4583;49.796;9.902;2022-07-17T07:58:49;19.50;57.10
9095;DHT22;4583;49.796;9.902;2022-07-17T08:08:50;19.90;56.00
9095;DHT22;4583;49.796;9.902;2022-07-17T08:18:52;20.30;55.80
9095;DHT22;4583;49.796;9.902;2022-07-17T08:28:54;20.60;54.70
9095;DHT22;4583;49.796;9.902;2022-07-17T08:38:56;21.00;53.80
9095;DHT22;4583;49.796;9.902;2022-07-17T08:48:59;21.30;52.70
9095;DHT22;4583;49.796;9.902;2022-07-17T08:59:01;21.50;51.70
9095;DHT22;4583;49.796;9.902;2022-07-17T09:09:10;21.80;50.90
9095;DHT22;4583;49.796;9.902;2022-07-17T09:19:12;22.10;50.30
9095;DHT22;4583;49.796;9.902;2022-07-17T09:29:24;22.30;49.20
9095;DHT22;4583;49.796;9.902;2022-07-17T09:39:38;22.50;48.70
9095;DHT22;4583;49.796;9.902;2022-07-17T09:49:41;22.70;48.10
9095;DHT22;4583;49.796;9.902;2022-07-17T09:59:47;22.90;47.30
9095;DHT22;4583;49.796;9.902;2022-07-17T10:09:49;23.10;46.70
9095;DHT22;4583;49.796;9.902;2022-07-17T10:19:54;23.30;46.20
9095;DHT22;4583;49.796;9.902;2022-07-17T10:30:06;23.60;46.20
9095;DHT22;4583;49.796;9.902;2022-07-17T10:50:19;23.80;45.10
9095;DHT22;4583;49.796;9.902;2022-07-17T11:00:20;23.90;44.60
9095;DHT22;4583;49.796;9.902;2022-07-17T11:10:23;24.00;44.40
9095;DHT22;4583;49.796;9.902;2022-07-17T11:20:26;24.00;43.40
9095;DHT22;4583;49.796;9.902;2022-07-17T11:30:28;24.10;43.00
9095;DHT22;4583;49.796;9.902;2022-07-17T11:40:31;24.10;42.80
9095;DHT22;4583;49.796;9.902;2022-07-17T11:50:33;24.30;42.40
9095;DHT22;4583;49.796;9.902;2022-07-17T12:00:35;24.50;42.00
9095;DHT22;4583;49.796;9.902;2022-07-17T12:10:37;24.80;41.30
9095;DHT22;4583;49.796;9.902;2022-07-17T12:20:44;25.10;39.70
9095;DHT22;4583;49.796;9.902;2022-07-17T12:30:46;25.50;38.20
9095;DHT22;4583;49.796;9.902;2022-07-17T12:40:48;25.80;37.70
9095;DHT22;4583;49.796;9.902;2022-07-17T12:50:50;26.00;37.20
9095;DHT22;4583;49.796;9.902;2022-07-17T13:00:51;26.00;36.90
9095;DHT22;4583;49.796;9.902;2022-07-17T13:10:53;26.00;37.00
9095;DHT22;4583;49.796;9.902;2022-07-17T13:20:55;26.00;37.30
9095;DHT22;4583;49.796;9.902;2022-07-17T13:31:02;26.00;37.30
9095;DHT22;4583;49.796;9.902;2022-07-17T13:41:05;26.10;37.10
9095;DHT22;4583;49.796;9.902;2022-07-17T13:51:07;26.10;36.00
9095;DHT22;4583;49.796;9.902;2022-07-17T14:01:08;26.30;35.70
9095;DHT22;4583;49.796;9.902;2022-07-17T14:11:11;26.40;33.90
9095;DHT22;4583;49.796;9.902;2022-07-17T14:21:13;26.40;33.00
9095;DHT22;4583;49.796;9.902;2022-07-17T14:31:14;26.60;32.80
9095;DHT22;4583;49.796;9.902;2022-07-17T14:41:18;26.80;32.80
9095;DHT22;4583;49.796;9.902;2022-07-17T14:51:20;26.80;31.70
9095;DHT22;4583;49.796;9.902;2022-07-17T15:01:22;27.10;31.90
9095;DHT22;4583;49.796;9.902;2022-07-17T15:11:23;27.80;32.70
9095;DHT22;4583;49.796;9.902;2022-07-17T15:21:25;27.20;34.80
9095;DHT22;4583;49.796;9.902;2022-07-17T15:31:47;27.10;37.40
9095;DHT22;4583;49.796;9.902;2022-07-17T15:41:49;27.40;39.10
9095;DHT22;4583;49.796;9.902;2022-07-17T15:51:51;26.80;40.70
9095;DHT22;4583;49.796;9.902;2022-07-17T16:01:52;26.60;37.70
9095;DHT22;4583;49.796;9.902;2022-07-17T16:11:54;26.50;38.60
9095;DHT22;4583;49.796;9.902;2022-07-17T16:21:56;27.40;38.70
9095;DHT22;4583;49.796;9.902;2022-07-17T16:31:58;27.40;38.60
9095;DHT22;4583;49.796;9.902;2022-07-17T16:42:00;27.00;36.80
9095;DHT22;4583;49.796;9.902;2022-07-17T16:52:02;26.80;36.40
9095;DHT22;4583;49.796;9.902;2022-07-17T17:02:04;26.50;36.10
9095;DHT22;4583;49.796;9.902;2022-07-17T17:12:06;26.40;34.90
9095;DHT22;4583;49.796;9.902;2022-07-17T17:22:08;26.30;36.20
9095;DHT22;4583;49.796;9.902;2022-07-17T17:32:10;26.20;37.10
9095;DHT22;4583;49.796;9.902;2022-07-17T17:42:12;26.20;37.70
9095;DHT22;4583;49.796;9.902;2022-07-17T17:52:14;26.40;37.80
9095;DHT22;4583;49.796;9.902;2022-07-17T18:02:15;26.50;37.90
9095;DHT22;4583;49.796;9.902;2022-07-17T18:12:17;26.30;38.30
9095;DHT22;4583;49.796;9.902;2022-07-17T18:22:19;25.90;38.90
9095;DHT22;4583;49.796;9.902;2022-07-17T18:32:21;25.70;40.60
9095;DHT22;4583;49.796;9.902;2022-07-17T18:42:22;25.60;42.40
9095;DHT22;4583;49.796;9.902;2022-07-17T18:52:24;25.30;42.50
9095;DHT22;4583;49.796;9.902;2022-07-17T19:02:26;25.10;43.40
9095;DHT22;4583;49.796;9.902;2022-07-17T19:12:28;24.90;44.10
9095;DHT22;4583;49.796;9.902;2022-07-17T19:22:30;24.70;43.50
9095;DHT22;4583;49.796;9.902;2022-07-17T19:32:31;24.50;42.00
9095;DHT22;4583;49.796;9.902;2022-07-17T19:42:33;24.30;41.60
9095;DHT22;4583;49.796;9.902;2022-07-17T19:52:36;24.10;41.40
9095;DHT22;4583;49.796;9.902;2022-07-17T20:02:37;23.90;41.70
9095;DHT22;4583;49.796;9.902;2022-07-17T20:12:39;23.60;42.20
9095;DHT22;4583;49.796;9.902;2022-07-17T20:22:41;23.40;42.80
9095;DHT22;4583;49.796;9.902;2022-07-17T20:32:43;23.10;43.10
9095;DHT22;4583;49.796;9.902;2022-07-17T20:42:45;22.70;43.50
9095;DHT22;4583;49.796;9.902;2022-07-17T20:52:47;22.50;43.80
9095;DHT22;4583;49.796;9.902;2022-07-17T21:02:48;22.20;44.60
9095;DHT22;4583;49.796;9.902;2022-07-17T21:12:51;22.00;45.10
9095;DHT22;4583;49.796;9.902;2022-07-17T21:22:53;21.80;45.70
9095;DHT22;4583;49.796;9.902;2022-07-17T21:32:55;21.60;46.10
9095;DHT22;4583;49.796;9.902;2022-07-17T21:42:57;21.40;46.40
9095;DHT22;4583;49.796;9.902;2022-07-17T21:52:59;21.20;46.90
9095;DHT22;4583;49.796;9.902;2022-07-17T22:03:01;21.00;47.50
9095;DHT22;4583;49.796;9.902;2022-07-17T22:13:03;20.80;47.70
9095;DHT22;4583;49.796;9.902;2022-07-17T22:23:05;20.70;48.40
9095;DHT22;4583;49.796;9.902;2022-07-17T22:33:06;20.60;48.90
9095;DHT22;4583;49.796;9.902;2022-07-17T22:43:08;20.40;49.00
9095;DHT22;4583;49.796;9.902;2022-07-17T22:53:10;20.20;49.20
9095;DHT22;4583;49.796;9.902;2022-07-17T23:03:12;20.00;49.70
9095;DHT22;4583;49.796;9.902;2022-07-17T23:13:14;19.90;50.00
9095;DHT22;4583;49.796;9.902;2022-07-17T23:23:16;19.80;50.40
9095;DHT22;4583;49.796;9.902;2022-07-17T23:33:17;19.60;50.50
9095;DHT22;4583;49.796;9.902;2022-07-17T23:43:19;19.30;51.40
9095;DHT22;4583;49.796;9.902;2022-07-17T23:53:21;19.20;51.80
